Terminal Aerodrome Forecast
Issued by NWS

Home | Current Version | Previous Version | Text Only | Print | Product List | Glossary On
Versions: 1 2 3 4 5 6 7 8 9 10 11 12 13 14 15
000
FTUS42 KMLB 232300
TAFSUA
TAF
KSUA 232339Z 2400/2424 14010KT P6SM SCT025 SCT250
     FM240300 VRB02KT P6SM SCT250
     FM241400 20006KT P6SM SCT025 SCT250
     FM241700 13009KT P6SM SCT030 SCT250=

USA.gov is the U.S. government's official web portal to all federal, state and local government web resources and services.